sensor_id;sensor_type;location;lat;lon;timestamp;temperature;humidity
4390;DHT22;2209;48.982;8.406;2022-09-03T00:02:18;23.70;79.60
4390;DHT22;2209;48.982;8.406;2022-09-03T00:04:48;23.70;80.00
4390;DHT22;2209;48.982;8.406;2022-09-03T00:07:17;23.70;80.40
4390;DHT22;2209;48.982;8.406;2022-09-03T00:09:43;23.70;80.40
4390;DHT22;2209;48.982;8.406;2022-09-03T00:12:09;23.70;80.60
4390;DHT22;2209;48.982;8.406;2022-09-03T00:14:36;23.70;80.80
4390;DHT22;2209;48.982;8.406;2022-09-03T00:17:02;23.60;81.00
4390;DHT22;2209;48.982;8.406;2022-09-03T00:19:30;23.60;81.00
4390;DHT22;2209;48.982;8.406;2022-09-03T00:21:56;23.60;80.60
4390;DHT22;2209;48.982;8.406;2022-09-03T00:24:25;23.60;80.40
4390;DHT22;2209;48.982;8.406;2022-09-03T00:26:54;23.60;80.60
4390;DHT22;2209;48.982;8.406;2022-09-03T00:29:20;23.60;81.10
4390;DHT22;2209;48.982;8.406;2022-09-03T00:31:46;23.60;81.90
4390;DHT22;2209;48.982;8.406;2022-09-03T00:34:14;23.60;82.50
4390;DHT22;2209;48.982;8.406;2022-09-03T00:36:40;23.60;83.10
4390;DHT22;2209;48.982;8.406;2022-09-03T00:39:03;23.50;83.40
4390;DHT22;2209;48.982;8.406;2022-09-03T00:41:32;23.50;83.70
4390;DHT22;2209;48.982;8.406;2022-09-03T00:44:08;23.50;83.70
4390;DHT22;2209;48.982;8.406;2022-09-03T00:46:38;23.50;83.60
4390;DHT22;2209;48.982;8.406;2022-09-03T00:49:14;23.50;83.70
4390;DHT22;2209;48.982;8.406;2022-09-03T00:51:44;23.50;83.70
4390;DHT22;2209;48.982;8.406;2022-09-03T00:54:13;23.50;83.40
4390;DHT22;2209;48.982;8.406;2022-09-03T00:56:46;23.50;83.30
4390;DHT22;2209;48.982;8.406;2022-09-03T00:59:18;23.50;83.70
4390;DHT22;2209;48.982;8.406;2022-09-03T01:01:49;23.40;83.90
4390;DHT22;2209;48.982;8.406;2022-09-03T01:04:25;23.40;84.10
4390;DHT22;2209;48.982;8.406;2022-09-03T01:06:54;23.40;84.30
4390;DHT22;2209;48.982;8.406;2022-09-03T01:09:29;23.40;84.50
4390;DHT22;2209;48.982;8.406;2022-09-03T01:11:58;23.40;84.70
4390;DHT22;2209;48.982;8.406;2022-09-03T01:14:33;23.40;84.90
4390;DHT22;2209;48.982;8.406;2022-09-03T01:17:02;23.30;84.90
4390;DHT22;2209;48.982;8.406;2022-09-03T01:19:46;23.30;84.90
4390;DHT22;2209;48.982;8.406;2022-09-03T01:22:26;23.30;85.00
4390;DHT22;2209;48.982;8.406;2022-09-03T01:25:14;23.30;85.20
4390;DHT22;2209;48.982;8.406;2022-09-03T01:27:45;23.20;85.40
4390;DHT22;2209;48.982;8.406;2022-09-03T01:30:13;23.20;85.60
4390;DHT22;2209;48.982;8.406;2022-09-03T01:32:44;23.20;85.80
4390;DHT22;2209;48.982;8.406;2022-09-03T01:35:19;23.20;85.90
4390;DHT22;2209;48.982;8.406;2022-09-03T01:37:57;23.20;86.00
4390;DHT22;2209;48.982;8.406;2022-09-03T01:40:26;23.20;86.20
4390;DHT22;2209;48.982;8.406;2022-09-03T01:43:00;23.10;86.20
4390;DHT22;2209;48.982;8.406;2022-09-03T01:45:32;23.10;86.40
4390;DHT22;2209;48.982;8.406;2022-09-03T01:48:07;23.10;86.50
4390;DHT22;2209;48.982;8.406;2022-09-03T01:50:38;23.10;86.70
4390;DHT22;2209;48.982;8.406;2022-09-03T01:53:06;23.10;87.60
4390;DHT22;2209;48.982;8.406;2022-09-03T01:55:33;23.10;87.00
4390;DHT22;2209;48.982;8.406;2022-09-03T01:58:06;23.10;86.90
4390;DHT22;2209;48.982;8.406;2022-09-03T02:00:34;23.00;87.00
4390;DHT22;2209;48.982;8.406;2022-09-03T02:03:01;23.00;87.20
4390;DHT22;2209;48.982;8.406;2022-09-03T02:05:26;23.00;87.40
4390;DHT22;2209;48.982;8.406;2022-09-03T02:07:57;23.00;87.60
4390;DHT22;2209;48.982;8.406;2022-09-03T02:10:24;23.00;88.00
4390;DHT22;2209;48.982;8.406;2022-09-03T02:12:52;23.00;88.30
4390;DHT22;2209;48.982;8.406;2022-09-03T02:15:18;23.00;88.50
4390;DHT22;2209;48.982;8.406;2022-09-03T02:17:44;23.00;88.60
4390;DHT22;2209;48.982;8.406;2022-09-03T02:20:09;22.90;88.50
4390;DHT22;2209;48.982;8.406;2022-09-03T02:22:33;22.90;88.50
4390;DHT22;2209;48.982;8.406;2022-09-03T02:24:55;22.90;88.40
4390;DHT22;2209;48.982;8.406;2022-09-03T02:27:18;22.90;88.40
4390;DHT22;2209;48.982;8.406;2022-09-03T02:29:41;22.90;88.30
4390;DHT22;2209;48.982;8.406;2022-09-03T02:32:03;22.90;88.20
4390;DHT22;2209;48.982;8.406;2022-09-03T02:34:27;22.80;88.10
4390;DHT22;2209;48.982;8.406;2022-09-03T02:36:50;22.80;88.00
4390;DHT22;2209;48.982;8.406;2022-09-03T02:39:12;22.80;87.90
4390;DHT22;2209;48.982;8.406;2022-09-03T02:41:34;22.80;88.20
4390;DHT22;2209;48.982;8.406;2022-09-03T02:44:00;22.80;88.50
4390;DHT22;2209;48.982;8.406;2022-09-03T02:46:26;22.80;88.80
4390;DHT22;2209;48.982;8.406;2022-09-03T02:48:51;22.80;88.90
4390;DHT22;2209;48.982;8.406;2022-09-03T02:51:15;22.80;89.10
4390;DHT22;2209;48.982;8.406;2022-09-03T02:53:37;22.70;89.30
4390;DHT22;2209;48.982;8.406;2022-09-03T02:56:00;22.70;89.50
4390;DHT22;2209;48.982;8.406;2022-09-03T02:58:22;22.70;89.70
4390;DHT22;2209;48.982;8.406;2022-09-03T03:00:44;22.70;90.00
4390;DHT22;2209;48.982;8.406;2022-09-03T03:03:09;22.70;90.10
4390;DHT22;2209;48.982;8.406;2022-09-03T03:05:39;22.70;90.30
4390;DHT22;2209;48.982;8.406;2022-09-03T03:08:04;22.70;90.40
4390;DHT22;2209;48.982;8.406;2022-09-03T03:10:28;22.70;90.40
4390;DHT22;2209;48.982;8.406;2022-09-03T03:12:50;22.60;90.60
4390;DHT22;2209;48.982;8.406;2022-09-03T03:15:13;22.60;90.70
4390;DHT22;2209;48.982;8.406;2022-09-03T03:17:35;22.60;90.70
4390;DHT22;2209;48.982;8.406;2022-09-03T03:19:57;22.60;90.70
4390;DHT22;2209;48.982;8.406;2022-09-03T03:22:19;22.60;90.70
4390;DHT22;2209;48.982;8.406;2022-09-03T03:24:42;22.60;90.70
4390;DHT22;2209;48.982;8.406;2022-09-03T03:27:04;22.60;90.90
4390;DHT22;2209;48.982;8.406;2022-09-03T03:29:30;22.60;91.00
4390;DHT22;2209;48.982;8.406;2022-09-03T03:31:52;22.60;91.10
4390;DHT22;2209;48.982;8.406;2022-09-03T03:34:14;22.60;91.10
4390;DHT22;2209;48.982;8.406;2022-09-03T03:36:36;22.60;91.20
4390;DHT22;2209;48.982;8.406;2022-09-03T03:38:59;22.50;91.10
4390;DHT22;2209;48.982;8.406;2022-09-03T03:41:25;22.60;91.20
4390;DHT22;2209;48.982;8.406;2022-09-03T03:43:51;22.50;91.20
4390;DHT22;2209;48.982;8.406;2022-09-03T03:46:14;22.50;91.20
4390;DHT22;2209;48.982;8.406;2022-09-03T03:48:37;22.50;91.20
4390;DHT22;2209;48.982;8.406;2022-09-03T03:51:00;22.50;91.10
4390;DHT22;2209;48.982;8.406;2022-09-03T03:53:24;22.50;91.00
4390;DHT22;2209;48.982;8.406;2022-09-03T03:55:53;22.50;91.00
4390;DHT22;2209;48.982;8.406;2022-09-03T03:58:18;22.50;91.30
4390;DHT22;2209;48.982;8.406;2022-09-03T04:00:40;22.50;91.20
4390;DHT22;2209;48.982;8.406;2022-09-03T04:03:02;22.50;91.10
4390;DHT22;2209;48.982;8.406;2022-09-03T04:05:25;22.50;91.00
4390;DHT22;2209;48.982;8.406;2022-09-03T04:07:47;22.50;91.00
4390;DHT22;2209;48.982;8.406;2022-09-03T04:10:09;22.50;91.00
4390;DHT22;2209;48.982;8.406;2022-09-03T04:12:31;22.50;90.90
4390;DHT22;2209;48.982;8.406;2022-09-03T04:14:55;22.50;91.00
4390;DHT22;2209;48.982;8.406;2022-09-03T04:17:17;22.50;91.30
4390;DHT22;2209;48.982;8.406;2022-09-03T04:19:39;22.50;91.50
4390;DHT22;2209;48.982;8.406;2022-09-03T04:22:01;22.50;91.60
4390;DHT22;2209;48.982;8.406;2022-09-03T04:24:24;22.40;91.50
4390;DHT22;2209;48.982;8.406;2022-09-03T04:26:47;22.40;91.50
4390;DHT22;2209;48.982;8.406;2022-09-03T04:29:10;22.40;91.60
4390;DHT22;2209;48.982;8.406;2022-09-03T04:31:34;22.40;91.70
4390;DHT22;2209;48.982;8.406;2022-09-03T04:33:56;22.40;92.10
4390;DHT22;2209;48.982;8.406;2022-09-03T04:36:19;22.40;92.30
4390;DHT22;2209;48.982;8.406;2022-09-03T04:38:43;22.40;92.40
4390;DHT22;2209;48.982;8.406;2022-09-03T04:41:06;22.30;92.50
4390;DHT22;2209;48.982;8.406;2022-09-03T04:43:29;22.30;92.50
4390;DHT22;2209;48.982;8.406;2022-09-03T04:45:54;22.30;92.40
4390;DHT22;2209;48.982;8.406;2022-09-03T04:48:17;22.30;92.30
4390;DHT22;2209;48.982;8.406;2022-09-03T04:50:40;22.30;92.50
4390;DHT22;2209;48.982;8.406;2022-09-03T04:53:03;22.30;92.70
4390;DHT22;2209;48.982;8.406;2022-09-03T04:55:26;22.30;92.90
4390;DHT22;2209;48.982;8.406;2022-09-03T04:57:48;22.30;92.90
4390;DHT22;2209;48.982;8.406;2022-09-03T05:00:11;22.30;92.70
4390;DHT22;2209;48.982;8.406;2022-09-03T05:02:33;22.30;92.60
4390;DHT22;2209;48.982;8.406;2022-09-03T05:04:58;22.30;92.60
4390;DHT22;2209;48.982;8.406;2022-09-03T05:07:20;22.30;92.70
4390;DHT22;2209;48.982;8.406;2022-09-03T05:09:42;22.30;92.90
4390;DHT22;2209;48.982;8.406;2022-09-03T05:12:04;22.30;93.00
4390;DHT22;2209;48.982;8.406;2022-09-03T05:14:26;22.30;93.20
4390;DHT22;2209;48.982;8.406;2022-09-03T05:16:49;22.30;93.10
4390;DHT22;2209;48.982;8.406;2022-09-03T05:19:11;22.20;93.20
4390;DHT22;2209;48.982;8.406;2022-09-03T05:21:34;22.20;93.40
4390;DHT22;2209;48.982;8.406;2022-09-03T05:23:58;22.20;93.40
4390;DHT22;2209;48.982;8.406;2022-09-03T05:26:22;22.20;93.50
4390;DHT22;2209;48.982;8.406;2022-09-03T05:28:45;22.20;93.50
4390;DHT22;2209;48.982;8.406;2022-09-03T05:31:10;22.20;93.50
4390;DHT22;2209;48.982;8.406;2022-09-03T05:33:33;22.20;93.60
4390;DHT22;2209;48.982;8.406;2022-09-03T05:36:00;22.20;93.80
4390;DHT22;2209;48.982;8.406;2022-09-03T05:38:24;22.20;94.00
4390;DHT22;2209;48.982;8.406;2022-09-03T05:40:46;22.20;94.20
4390;DHT22;2209;48.982;8.406;2022-09-03T05:43:08;22.20;94.40
4390;DHT22;2209;48.982;8.406;2022-09-03T05:45:30;22.20;94.70
4390;DHT22;2209;48.982;8.406;2022-09-03T05:47:52;22.10;94.60
4390;DHT22;2209;48.982;8.406;2022-09-03T05:50:14;22.10;94.60
4390;DHT22;2209;48.982;8.406;2022-09-03T05:52:37;22.10;94.70
4390;DHT22;2209;48.982;8.406;2022-09-03T05:55:00;22.10;94.80
4390;DHT22;2209;48.982;8.406;2022-09-03T05:57:22;22.10;94.90
4390;DHT22;2209;48.982;8.406;2022-09-03T05:59:45;22.10;95.00
4390;DHT22;2209;48.982;8.406;2022-09-03T06:02:07;22.10;95.10
4390;DHT22;2209;48.982;8.406;2022-09-03T06:04:29;22.10;95.40
4390;DHT22;2209;48.982;8.406;2022-09-03T06:06:51;22.10;95.70
4390;DHT22;2209;48.982;8.406;2022-09-03T06:09:14;22.10;95.80
4390;DHT22;2209;48.982;8.406;2022-09-03T06:11:39;22.10;95.80
4390;DHT22;2209;48.982;8.406;2022-09-03T06:14:03;22.00;95.90
4390;DHT22;2209;48.982;8.406;2022-09-03T06:16:27;22.00;96.00
4390;DHT22;2209;48.982;8.406;2022-09-03T06:18:49;22.10;96.20
4390;DHT22;2209;48.982;8.406;2022-09-03T06:21:11;22.10;96.20
4390;DHT22;2209;48.982;8.406;2022-09-03T06:23:35;22.10;96.40
4390;DHT22;2209;48.982;8.406;2022-09-03T06:26:02;22.10;96.80
4390;DHT22;2209;48.982;8.406;2022-09-03T06:28:26;22.00;97.10
4390;DHT22;2209;48.982;8.406;2022-09-03T06:30:48;22.00;97.60
4390;DHT22;2209;48.982;8.406;2022-09-03T06:33:10;22.00;97.90
4390;DHT22;2209;48.982;8.406;2022-09-03T06:35:32;22.00;98.20
4390;DHT22;2209;48.982;8.406;2022-09-03T06:37:54;22.00;98.40
4390;DHT22;2209;48.982;8.406;2022-09-03T06:40:18;22.00;98.60
4390;DHT22;2209;48.982;8.406;2022-09-03T06:42:42;22.00;98.70
4390;DHT22;2209;48.982;8.406;2022-09-03T06:45:07;22.00;99.30
4390;DHT22;2209;48.982;8.406;2022-09-03T06:47:29;22.00;99.20
4390;DHT22;2209;48.982;8.406;2022-09-03T06:49:51;22.00;99.50
4390;DHT22;2209;48.982;8.406;2022-09-03T06:52:13;22.00;99.60
4390;DHT22;2209;48.982;8.406;2022-09-03T06:54:36;22.00;99.90
4390;DHT22;2209;48.982;8.406;2022-09-03T06:56:59;22.00;99.90
4390;DHT22;2209;48.982;8.406;2022-09-03T06:59:21;22.00;99.90
4390;DHT22;2209;48.982;8.406;2022-09-03T07:01:45;22.00;99.90
4390;DHT22;2209;48.982;8.406;2022-09-03T07:04:07;22.00;99.90
4390;DHT22;2209;48.982;8.406;2022-09-03T07:06:31;22.00;99.90
4390;DHT22;2209;48.982;8.406;2022-09-03T07:08:54;22.00;99.90
4390;DHT22;2209;48.982;8.406;2022-09-03T07:11:21;22.00;99.90
4390;DHT22;2209;48.982;8.406;2022-09-03T07:13:47;21.90;99.90
4390;DHT22;2209;48.982;8.406;2022-09-03T07:16:12;21.90;99.90
4390;DHT22;2209;48.982;8.406;2022-09-03T07:18:36;21.90;99.90
4390;DHT22;2209;48.982;8.406;2022-09-03T07:20:59;21.90;99.90
4390;DHT22;2209;48.982;8.406;2022-09-03T07:23:21;21.90;99.90
4390;DHT22;2209;48.982;8.406;2022-09-03T07:25:52;21.90;99.90
4390;DHT22;2209;48.982;8.406;2022-09-03T07:28:14;21.80;99.90
4390;DHT22;2209;48.982;8.406;2022-09-03T07:30:36;21.90;99.90
4390;DHT22;2209;48.982;8.406;2022-09-03T07:32:58;21.80;99.90
4390;DHT22;2209;48.982;8.406;2022-09-03T07:35:25;21.80;99.90
4390;DHT22;2209;48.982;8.406;2022-09-03T07:37:47;21.80;99.90
4390;DHT22;2209;48.982;8.406;2022-09-03T07:40:10;21.60;99.90
4390;DHT22;2209;48.982;8.406;2022-09-03T07:42:32;21.50;99.90
4390;DHT22;2209;48.982;8.406;2022-09-03T07:44:55;21.50;99.90
4390;DHT22;2209;48.982;8.406;2022-09-03T07:47:18;21.50;99.90
4390;DHT22;2209;48.982;8.406;2022-09-03T07:49:40;21.40;99.90
4390;DHT22;2209;48.982;8.406;2022-09-03T07:52:03;21.40;99.90
4390;DHT22;2209;48.982;8.406;2022-09-03T07:54:27;21.40;99.90
4390;DHT22;2209;48.982;8.406;2022-09-03T07:56:49;21.50;99.90
4390;DHT22;2209;48.982;8.406;2022-09-03T07:59:11;21.50;99.90
4390;DHT22;2209;48.982;8.406;2022-09-03T08:01:34;21.60;99.90
4390;DHT22;2209;48.982;8.406;2022-09-03T08:03:56;21.60;99.90
4390;DHT22;2209;48.982;8.406;2022-09-03T08:06:20;21.60;99.90
4390;DHT22;2209;48.982;8.406;2022-09-03T08:08:44;21.60;99.90
4390;DHT22;2209;48.982;8.406;2022-09-03T08:11:08;21.60;99.90
4390;DHT22;2209;48.982;8.406;2022-09-03T08:13:30;21.70;99.90
4390;DHT22;2209;48.982;8.406;2022-09-03T08:15:54;21.70;99.90
4390;DHT22;2209;48.982;8.406;2022-09-03T08:18:16;21.60;99.90
4390;DHT22;2209;48.982;8.406;2022-09-03T08:20:38;21.60;99.90
4390;DHT22;2209;48.982;8.406;2022-09-03T08:23:01;21.60;99.90
4390;DHT22;2209;48.982;8.406;2022-09-03T08:25:25;21.60;99.90
4390;DHT22;2209;48.982;8.406;2022-09-03T08:27:47;21.70;99.90
4390;DHT22;2209;48.982;8.406;2022-09-03T08:30:10;21.60;99.90
4390;DHT22;2209;48.982;8.406;2022-09-03T08:32:33;21.60;99.90
4390;DHT22;2209;48.982;8.406;2022-09-03T08:34:55;21.60;99.90
4390;DHT22;2209;48.982;8.406;2022-09-03T08:37:18;21.60;99.90
4390;DHT22;2209;48.982;8.406;2022-09-03T08:39:40;21.60;99.90
4390;DHT22;2209;48.982;8.406;2022-09-03T08:42:16;21.60;99.90
4390;DHT22;2209;48.982;8.406;2022-09-03T08:44:44;21.60;99.90
4390;DHT22;2209;48.982;8.406;2022-09-03T08:47:10;21.60;99.90
4390;DHT22;2209;48.982;8.406;2022-09-03T08:49:42;21.60;99.90
4390;DHT22;2209;48.982;8.406;2022-09-03T08:52:15;21.60;99.90
4390;DHT22;2209;48.982;8.406;2022-09-03T08:54:41;21.60;99.90
4390;DHT22;2209;48.982;8.406;2022-09-03T08:57:03;21.70;99.90
4390;DHT22;2209;48.982;8.406;2022-09-03T08:59:29;21.70;99.90
4390;DHT22;2209;48.982;8.406;2022-09-03T09:01:55;21.70;99.90
4390;DHT22;2209;48.982;8.406;2022-09-03T09:04:29;21.70;99.90
4390;DHT22;2209;48.982;8.406;2022-09-03T09:06:58;21.70;99.90
4390;DHT22;2209;48.982;8.406;2022-09-03T09:09:30;21.70;99.90
4390;DHT22;2209;48.982;8.406;2022-09-03T09:12:06;21.70;99.90
4390;DHT22;2209;48.982;8.406;2022-09-03T09:14:36;21.70;99.90
4390;DHT22;2209;48.982;8.406;2022-09-03T09:17:07;21.70;99.90
4390;DHT22;2209;48.982;8.406;2022-09-03T09:19:42;21.70;99.90
4390;DHT22;2209;48.982;8.406;2022-09-03T09:22:09;21.70;99.90
4390;DHT22;2209;48.982;8.406;2022-09-03T09:24:36;21.70;99.90
4390;DHT22;2209;48.982;8.406;2022-09-03T09:27:04;21.60;99.90
4390;DHT22;2209;48.982;8.406;2022-09-03T09:29:30;21.60;99.90
4390;DHT22;2209;48.982;8.406;2022-09-03T09:31:55;21.60;99.90
4390;DHT22;2209;48.982;8.406;2022-09-03T09:34:17;21.60;99.90
4390;DHT22;2209;48.982;8.406;2022-09-03T09:36:46;21.60;99.90
4390;DHT22;2209;48.982;8.406;2022-09-03T09:39:10;21.70;99.90
4390;DHT22;2209;48.982;8.406;2022-09-03T09:41:35;21.50;99.90
4390;DHT22;2209;48.982;8.406;2022-09-03T09:44:02;21.50;99.90
4390;DHT22;2209;48.982;8.406;2022-09-03T09:46:30;21.40;99.90
4390;DHT22;2209;48.982;8.406;2022-09-03T09:48:56;21.30;99.90
4390;DHT22;2209;48.982;8.406;2022-09-03T09:51:20;21.30;99.90
4390;DHT22;2209;48.982;8.406;2022-09-03T09:53:42;21.20;99.90
4390;DHT22;2209;48.982;8.406;2022-09-03T09:56:05;21.20;99.90
4390;DHT22;2209;48.982;8.406;2022-09-03T09:58:29;21.20;99.90
4390;DHT22;2209;48.982;8.406;2022-09-03T10:00:56;21.20;99.90
4390;DHT22;2209;48.982;8.406;2022-09-03T10:03:19;21.20;99.90
4390;DHT22;2209;48.982;8.406;2022-09-03T10:05:43;21.20;99.90
4390;DHT22;2209;48.982;8.406;2022-09-03T10:08:18;21.30;99.90
4390;DHT22;2209;48.982;8.406;2022-09-03T10:10:44;21.30;99.90
4390;DHT22;2209;48.982;8.406;2022-09-03T10:13:12;21.40;99.90
4390;DHT22;2209;48.982;8.406;2022-09-03T10:15:40;21.50;99.90
4390;DHT22;2209;48.982;8.406;2022-09-03T10:18:09;21.50;99.90
4390;DHT22;2209;48.982;8.406;2022-09-03T10:20:38;21.60;99.90
4390;DHT22;2209;48.982;8.406;2022-09-03T10:23:12;21.60;99.90
4390;DHT22;2209;48.982;8.406;2022-09-03T10:25:45;21.70;99.90
4390;DHT22;2209;48.982;8.406;2022-09-03T10:28:13;21.80;99.90
4390;DHT22;2209;48.982;8.406;2022-09-03T10:30:48;21.80;99.90
4390;DHT22;2209;48.982;8.406;2022-09-03T10:33:17;21.80;99.90
4390;DHT22;2209;48.982;8.406;2022-09-03T10:35:44;21.80;99.90
4390;DHT22;2209;48.982;8.406;2022-09-03T10:38:16;21.80;99.90
4390;DHT22;2209;48.982;8.406;2022-09-03T10:40:43;21.80;99.90
4390;DHT22;2209;48.982;8.406;2022-09-03T10:43:18;21.80;99.90
4390;DHT22;2209;48.982;8.406;2022-09-03T10:45:51;21.80;99.90
4390;DHT22;2209;48.982;8.406;2022-09-03T10:48:32;21.80;99.90
4390;DHT22;2209;48.982;8.406;2022-09-03T10:51:02;21.80;99.90
4390;DHT22;2209;48.982;8.406;2022-09-03T10:53:49;21.80;99.90
4390;DHT22;2209;48.982;8.406;2022-09-03T10:56:16;21.70;99.90
4390;DHT22;2209;48.982;8.406;2022-09-03T10:58:52;21.70;99.90
4390;DHT22;2209;48.982;8.406;2022-09-03T11:01:25;21.80;99.90
4390;DHT22;2209;48.982;8.406;2022-09-03T11:04:06;21.80;99.90
4390;DHT22;2209;48.982;8.406;2022-09-03T11:06:41;21.80;99.90
4390;DHT22;2209;48.982;8.406;2022-09-03T11:09:12;21.80;99.90
4390;DHT22;2209;48.982;8.406;2022-09-03T11:11:39;21.80;99.90
4390;DHT22;2209;48.982;8.406;2022-09-03T11:14:07;21.80;99.90
4390;DHT22;2209;48.982;8.406;2022-09-03T11:16:33;21.80;99.90
4390;DHT22;2209;48.982;8.406;2022-09-03T11:19:03;21.70;99.90
4390;DHT22;2209;48.982;8.406;2022-09-03T11:21:27;21.70;99.90
4390;DHT22;2209;48.982;8.406;2022-09-03T11:23:53;21.70;99.90
4390;DHT22;2209;48.982;8.406;2022-09-03T11:26:23;21.70;99.90
4390;DHT22;2209;48.982;8.406;2022-09-03T11:28:53;21.80;99.90
4390;DHT22;2209;48.982;8.406;2022-09-03T11:31:23;21.80;99.90
4390;DHT22;2209;48.982;8.406;2022-09-03T11:33:49;21.80;99.90
4390;DHT22;2209;48.982;8.406;2022-09-03T11:36:13;21.70;99.90
4390;DHT22;2209;48.982;8.406;2022-09-03T11:38:42;21.80;99.90
4390;DHT22;2209;48.982;8.406;2022-09-03T11:41:11;21.80;99.90
4390;DHT22;2209;48.982;8.406;2022-09-03T11:43:36;21.80;99.90
4390;DHT22;2209;48.982;8.406;2022-09-03T11:46:05;21.70;99.90
4390;DHT22;2209;48.982;8.406;2022-09-03T11:48:37;21.70;99.90
4390;DHT22;2209;48.982;8.406;2022-09-03T11:50:59;21.70;99.90
4390;DHT22;2209;48.982;8.406;2022-09-03T11:53:24;21.80;99.90
4390;DHT22;2209;48.982;8.406;2022-09-03T11:55:52;21.70;99.90
4390;DHT22;2209;48.982;8.406;2022-09-03T11:58:21;21.80;99.90
4390;DHT22;2209;48.982;8.406;2022-09-03T12:00:46;21.80;99.90
4390;DHT22;2209;48.982;8.406;2022-09-03T12:03:13;21.80;99.90
4390;DHT22;2209;48.982;8.406;2022-09-03T12:05:44;21.80;99.90
4390;DHT22;2209;48.982;8.406;2022-09-03T12:11:29;21.80;99.90
4390;DHT22;2209;48.982;8.406;2022-09-03T12:14:02;21.90;99.90
4390;DHT22;2209;48.982;8.406;2022-09-03T12:16:38;22.00;99.90
4390;DHT22;2209;48.982;8.406;2022-09-03T12:19:06;22.00;99.90
4390;DHT22;2209;48.982;8.406;2022-09-03T12:21:37;22.00;99.90
4390;DHT22;2209;48.982;8.406;2022-09-03T12:24:01;21.90;99.90
4390;DHT22;2209;48.982;8.406;2022-09-03T12:26:24;21.90;99.90
4390;DHT22;2209;48.982;8.406;2022-09-03T12:28:48;22.00;99.90
4390;DHT22;2209;48.982;8.406;2022-09-03T12:31:15;22.00;99.90
4390;DHT22;2209;48.982;8.406;2022-09-03T12:33:43;21.90;99.90
4390;DHT22;2209;48.982;8.406;2022-09-03T12:36:08;21.90;99.90
4390;DHT22;2209;48.982;8.406;2022-09-03T12:38:30;22.00;99.90
4390;DHT22;2209;48.982;8.406;2022-09-03T12:40:54;22.10;99.90
4390;DHT22;2209;48.982;8.406;2022-09-03T12:43:17;22.00;99.90
4390;DHT22;2209;48.982;8.406;2022-09-03T12:45:42;22.10;99.90
4390;DHT22;2209;48.982;8.406;2022-09-03T12:48:12;22.30;99.90
4390;DHT22;2209;48.982;8.406;2022-09-03T12:50:37;22.30;99.90
4390;DHT22;2209;48.982;8.406;2022-09-03T12:53:00;22.30;99.90
4390;DHT22;2209;48.982;8.406;2022-09-03T12:55:30;22.30;99.90
4390;DHT22;2209;48.982;8.406;2022-09-03T12:57:58;22.30;99.90
4390;DHT22;2209;48.982;8.406;2022-09-03T13:00:23;22.30;99.90
4390;DHT22;2209;48.982;8.406;2022-09-03T13:02:50;22.30;99.90
4390;DHT22;2209;48.982;8.406;2022-09-03T13:05:17;22.30;99.90
4390;DHT22;2209;48.982;8.406;2022-09-03T13:07:46;22.30;99.90
4390;DHT22;2209;48.982;8.406;2022-09-03T13:10:23;22.40;99.90
4390;DHT22;2209;48.982;8.406;2022-09-03T13:12:46;22.40;99.90
4390;DHT22;2209;48.982;8.406;2022-09-03T13:15:17;22.40;99.90
4390;DHT22;2209;48.982;8.406;2022-09-03T13:18:05;22.40;99.90
4390;DHT22;2209;48.982;8.406;2022-09-03T13:20:33;22.50;99.90
4390;DHT22;2209;48.982;8.406;2022-09-03T13:23:06;22.50;99.90
4390;DHT22;2209;48.982;8.406;2022-09-03T13:25:36;22.50;99.90
4390;DHT22;2209;48.982;8.406;2022-09-03T13:28:09;22.50;99.90
4390;DHT22;2209;48.982;8.406;2022-09-03T13:30:41;22.60;99.90
4390;DHT22;2209;48.982;8.406;2022-09-03T13:33:14;22.60;99.90
4390;DHT22;2209;48.982;8.406;2022-09-03T13:35:46;22.60;99.90
4390;DHT22;2209;48.982;8.406;2022-09-03T13:38:21;22.70;99.90
4390;DHT22;2209;48.982;8.406;2022-09-03T13:40:46;22.70;99.90
4390;DHT22;2209;48.982;8.406;2022-09-03T13:43:19;22.70;99.90
4390;DHT22;2209;48.982;8.406;2022-09-03T13:45:49;22.70;99.90
4390;DHT22;2209;48.982;8.406;2022-09-03T13:48:16;22.80;99.90
4390;DHT22;2209;48.982;8.406;2022-09-03T13:51:03;22.70;99.90
4390;DHT22;2209;48.982;8.406;2022-09-03T13:53:39;22.90;99.70
4390;DHT22;2209;48.982;8.406;2022-09-03T13:56:06;22.90;99.50
4390;DHT22;2209;48.982;8.406;2022-09-03T13:58:40;22.90;99.60
4390;DHT22;2209;48.982;8.406;2022-09-03T14:01:10;23.00;99.70
4390;DHT22;2209;48.982;8.406;2022-09-03T14:03:43;23.10;99.70
4390;DHT22;2209;48.982;8.406;2022-09-03T14:06:10;23.10;99.80
4390;DHT22;2209;48.982;8.406;2022-09-03T14:08:52;23.20;99.80
4390;DHT22;2209;48.982;8.406;2022-09-03T14:11:22;23.20;99.70
4390;DHT22;2209;48.982;8.406;2022-09-03T14:13:59;23.30;99.10
4390;DHT22;2209;48.982;8.406;2022-09-03T14:16:29;23.30;98.70
4390;DHT22;2209;48.982;8.406;2022-09-03T14:18:58;23.40;98.40
4390;DHT22;2209;48.982;8.406;2022-09-03T14:21:26;23.50;98.10
4390;DHT22;2209;48.982;8.406;2022-09-03T14:23:58;23.60;97.70
4390;DHT22;2209;48.982;8.406;2022-09-03T14:26:26;23.60;97.20
4390;DHT22;2209;48.982;8.406;2022-09-03T14:28:57;23.70;97.00
4390;DHT22;2209;48.982;8.406;2022-09-03T14:31:29;23.70;96.60
4390;DHT22;2209;48.982;8.406;2022-09-03T14:34:02;23.70;96.00
4390;DHT22;2209;48.982;8.406;2022-09-03T14:36:30;23.80;96.10
4390;DHT22;2209;48.982;8.406;2022-09-03T14:39:08;23.80;96.30
4390;DHT22;2209;48.982;8.406;2022-09-03T14:44:39;23.70;96.40
4390;DHT22;2209;48.982;8.406;2022-09-03T14:47:14;23.70;96.30
4390;DHT22;2209;48.982;8.406;2022-09-03T14:49:54;23.70;96.60
4390;DHT22;2209;48.982;8.406;2022-09-03T14:52:29;23.70;97.10
4390;DHT22;2209;48.982;8.406;2022-09-03T14:55:08;23.70;97.20
4390;DHT22;2209;48.982;8.406;2022-09-03T14:57:52;23.70;97.30
4390;DHT22;2209;48.982;8.406;2022-09-03T15:00:20;23.70;97.40
4390;DHT22;2209;48.982;8.406;2022-09-03T15:03:15;23.80;97.40
4390;DHT22;2209;48.982;8.406;2022-09-03T15:06:01;23.80;97.30
4390;DHT22;2209;48.982;8.406;2022-09-03T15:08:43;23.80;96.80
4390;DHT22;2209;48.982;8.406;2022-09-03T15:11:14;23.80;96.70
4390;DHT22;2209;48.982;8.406;2022-09-03T15:13:46;23.80;96.60
4390;DHT22;2209;48.982;8.406;2022-09-03T15:16:19;23.80;96.60
4390;DHT22;2209;48.982;8.406;2022-09-03T15:18:56;23.80;96.70
4390;DHT22;2209;48.982;8.406;2022-09-03T15:21:27;23.80;96.80
4390;DHT22;2209;48.982;8.406;2022-09-03T15:24:01;23.80;96.90
4390;DHT22;2209;48.982;8.406;2022-09-03T15:27:00;23.80;97.00
4390;DHT22;2209;48.982;8.406;2022-09-03T15:29:40;23.80;97.10
4390;DHT22;2209;48.982;8.406;2022-09-03T15:32:11;23.80;97.20
4390;DHT22;2209;48.982;8.406;2022-09-03T15:34:53;23.70;97.20
4390;DHT22;2209;48.982;8.406;2022-09-03T15:37:24;23.70;97.20
4390;DHT22;2209;48.982;8.406;2022-09-03T15:39:59;23.70;97.20
4390;DHT22;2209;48.982;8.406;2022-09-03T15:42:26;23.70;97.30
4390;DHT22;2209;48.982;8.406;2022-09-03T15:44:53;23.70;97.40
4390;DHT22;2209;48.982;8.406;2022-09-03T15:47:37;23.80;97.50
4390;DHT22;2209;48.982;8.406;2022-09-03T15:50:14;23.70;97.60
4390;DHT22;2209;48.982;8.406;2022-09-03T15:52:48;23.70;97.70
4390;DHT22;2209;48.982;8.406;2022-09-03T15:55:24;23.70;97.80
4390;DHT22;2209;48.982;8.406;2022-09-03T15:57:55;23.70;97.90
4390;DHT22;2209;48.982;8.406;2022-09-03T16:00:30;23.60;97.90
4390;DHT22;2209;48.982;8.406;2022-09-03T16:03:07;23.60;97.90
4390;DHT22;2209;48.982;8.406;2022-09-03T16:05:36;23.70;98.00
4390;DHT22;2209;48.982;8.406;2022-09-03T16:08:09;23.70;98.00
4390;DHT22;2209;48.982;8.406;2022-09-03T16:10:47;23.70;98.10